Alert, Indiana
Current Conditions -  °F | °C
As of 10:55 AM on Saturday 25 Oct 2014 (Local Time) from KBAK Reporting Station
Overcast Overcast  
Wind Chill: 63°   Ceiling: 1200
Heat Index: 63°   Visibility: 10mi
Dew Point: 57°   Wind: 9mph
Humidity: 82%   Direction: 260°W
Pressure: 30"   Gusts: NA
Location:  39.1743°N, 85.6083°W
Report Text: KBAK 251455Z 26008KT 10SM OVC012 17/14 A3000
Loading
Personal Weather Stations






























Interactive Weather Map
Tropical Storm Tracking
New forecast layout! Learn more

10-Day Weather Forecast

Advertisements
Track Severe Weather on mobile